sensor_id;sensor_type;location;lat;lon;timestamp;P1;durP1;ratioP1;P2;durP2;ratioP2
4646;SDS011;2336;47.822;7.564;2023-08-20T00:00:47;8.97;;;8.07;;
4646;SDS011;2336;47.822;7.564;2023-08-20T00:03:14;7.73;;;7.23;;
4646;SDS011;2336;47.822;7.564;2023-08-20T00:05:41;8.40;;;7.53;;
4646;SDS011;2336;47.822;7.564;2023-08-20T00:08:08;8.57;;;7.57;;
4646;SDS011;2336;47.822;7.564;2023-08-20T00:10:36;7.70;;;6.93;;
4646;SDS011;2336;47.822;7.564;2023-08-20T00:13:03;7.73;;;7.13;;
4646;SDS011;2336;47.822;7.564;2023-08-20T00:15:30;7.40;;;6.80;;
4646;SDS011;2336;47.822;7.564;2023-08-20T00:17:57;8.50;;;7.80;;
4646;SDS011;2336;47.822;7.564;2023-08-20T00:20:24;7.50;;;6.80;;
4646;SDS011;2336;47.822;7.564;2023-08-20T00:22:51;7.87;;;7.37;;
4646;SDS011;2336;47.822;7.564;2023-08-20T00:25:18;8.40;;;7.80;;
4646;SDS011;2336;47.822;7.564;2023-08-20T00:27:47;8.20;;;7.60;;
4646;SDS011;2336;47.822;7.564;2023-08-20T00:30:13;8.63;;;7.87;;
4646;SDS011;2336;47.822;7.564;2023-08-20T00:32:40;7.73;;;7.17;;
4646;SDS011;2336;47.822;7.564;2023-08-20T00:35:07;7.47;;;6.87;;
4646;SDS011;2336;47.822;7.564;2023-08-20T00:37:34;7.40;;;6.90;;
4646;SDS011;2336;47.822;7.564;2023-08-20T00:40:01;8.37;;;7.40;;
4646;SDS011;2336;47.822;7.564;2023-08-20T00:42:30;7.83;;;7.33;;
4646;SDS011;2336;47.822;7.564;2023-08-20T00:44:59;7.50;;;6.97;;
4646;SDS011;2336;47.822;7.564;2023-08-20T00:47:25;7.43;;;6.93;;
4646;SDS011;2336;47.822;7.564;2023-08-20T00:49:54;7.83;;;6.97;;
4646;SDS011;2336;47.822;7.564;2023-08-20T00:52:21;8.50;;;7.80;;
4646;SDS011;2336;47.822;7.564;2023-08-20T00:54:49;9.23;;;8.10;;
4646;SDS011;2336;47.822;7.564;2023-08-20T00:57:17;8.50;;;7.70;;
4646;SDS011;2336;47.822;7.564;2023-08-20T00:59:44;7.10;;;6.60;;
4646;SDS011;2336;47.822;7.564;2023-08-20T01:02:14;7.60;;;7.00;;
4646;SDS011;2336;47.822;7.564;2023-08-20T01:04:42;7.57;;;7.03;;
4646;SDS011;2336;47.822;7.564;2023-08-20T01:07:11;8.83;;;8.03;;
4646;SDS011;2336;47.822;7.564;2023-08-20T01:09:48;8.80;;;7.90;;
4646;SDS011;2336;47.822;7.564;2023-08-20T01:12:21;8.57;;;7.87;;
4646;SDS011;2336;47.822;7.564;2023-08-20T01:14:50;7.77;;;7.17;;
4646;SDS011;2336;47.822;7.564;2023-08-20T01:17:18;7.67;;;7.00;;
4646;SDS011;2336;47.822;7.564;2023-08-20T01:19:45;8.93;;;8.10;;
4646;SDS011;2336;47.822;7.564;2023-08-20T01:22:21;11.90;;;8.03;;
4646;SDS011;2336;47.822;7.564;2023-08-20T01:25:08;8.63;;;8.03;;
4646;SDS011;2336;47.822;7.564;2023-08-20T01:27:48;9.27;;;8.43;;
4646;SDS011;2336;47.822;7.564;2023-08-20T01:30:21;8.03;;;7.30;;
4646;SDS011;2336;47.822;7.564;2023-08-20T01:32:48;7.80;;;7.30;;
4646;SDS011;2336;47.822;7.564;2023-08-20T01:35:16;8.50;;;7.90;;
4646;SDS011;2336;47.822;7.564;2023-08-20T01:37:44;8.47;;;7.70;;
4646;SDS011;2336;47.822;7.564;2023-08-20T01:40:11;8.10;;;7.50;;
4646;SDS011;2336;47.822;7.564;2023-08-20T01:42:38;8.00;;;7.50;;
4646;SDS011;2336;47.822;7.564;2023-08-20T01:45:06;8.17;;;7.57;;
4646;SDS011;2336;47.822;7.564;2023-08-20T01:47:35;9.47;;;8.40;;
4646;SDS011;2336;47.822;7.564;2023-08-20T01:50:02;7.97;;;7.37;;
4646;SDS011;2336;47.822;7.564;2023-08-20T01:52:29;8.93;;;8.17;;
4646;SDS011;2336;47.822;7.564;2023-08-20T01:54:57;8.07;;;7.50;;
4646;SDS011;2336;47.822;7.564;2023-08-20T01:57:24;8.07;;;7.47;;
4646;SDS011;2336;47.822;7.564;2023-08-20T01:59:51;8.27;;;7.63;;
4646;SDS011;2336;47.822;7.564;2023-08-20T02:02:18;8.20;;;7.60;;
4646;SDS011;2336;47.822;7.564;2023-08-20T02:04:46;8.50;;;7.90;;
4646;SDS011;2336;47.822;7.564;2023-08-20T02:07:13;8.47;;;7.67;;
4646;SDS011;2336;47.822;7.564;2023-08-20T02:09:40;8.90;;;8.30;;
4646;SDS011;2336;47.822;7.564;2023-08-20T02:12:07;8.30;;;7.70;;
4646;SDS011;2336;47.822;7.564;2023-08-20T02:14:34;9.00;;;8.40;;
4646;SDS011;2336;47.822;7.564;2023-08-20T02:17:01;8.40;;;7.60;;
4646;SDS011;2336;47.822;7.564;2023-08-20T02:19:27;8.30;;;7.70;;
4646;SDS011;2336;47.822;7.564;2023-08-20T02:21:56;9.10;;;8.30;;
4646;SDS011;2336;47.822;7.564;2023-08-20T02:24:22;8.93;;;8.20;;
4646;SDS011;2336;47.822;7.564;2023-08-20T02:26:49;9.70;;;8.90;;
4646;SDS011;2336;47.822;7.564;2023-08-20T02:29:16;8.90;;;8.30;;
4646;SDS011;2336;47.822;7.564;2023-08-20T02:31:43;8.57;;;7.87;;
4646;SDS011;2336;47.822;7.564;2023-08-20T02:34:09;8.53;;;7.83;;
4646;SDS011;2336;47.822;7.564;2023-08-20T02:36:36;8.10;;;7.50;;
4646;SDS011;2336;47.822;7.564;2023-08-20T02:39:04;8.57;;;7.87;;
4646;SDS011;2336;47.822;7.564;2023-08-20T02:41:32;7.40;;;6.93;;
4646;SDS011;2336;47.822;7.564;2023-08-20T02:44:01;8.50;;;7.73;;
4646;SDS011;2336;47.822;7.564;2023-08-20T02:46:28;8.73;;;8.00;;
4646;SDS011;2336;47.822;7.564;2023-08-20T02:48:55;8.60;;;8.00;;
4646;SDS011;2336;47.822;7.564;2023-08-20T02:51:21;8.43;;;7.70;;
4646;SDS011;2336;47.822;7.564;2023-08-20T02:53:48;8.53;;;7.93;;
4646;SDS011;2336;47.822;7.564;2023-08-20T02:56:16;9.20;;;8.60;;
4646;SDS011;2336;47.822;7.564;2023-08-20T02:58:43;9.30;;;8.60;;
4646;SDS011;2336;47.822;7.564;2023-08-20T03:01:17;8.37;;;7.77;;
4646;SDS011;2336;47.822;7.564;2023-08-20T03:03:45;8.80;;;8.20;;
4646;SDS011;2336;47.822;7.564;2023-08-20T03:06:11;9.53;;;8.83;;
4646;SDS011;2336;47.822;7.564;2023-08-20T03:08:38;9.87;;;8.97;;
4646;SDS011;2336;47.822;7.564;2023-08-20T03:11:05;9.30;;;8.40;;
4646;SDS011;2336;47.822;7.564;2023-08-20T03:13:33;8.80;;;8.20;;
4646;SDS011;2336;47.822;7.564;2023-08-20T03:16:00;8.70;;;8.10;;
4646;SDS011;2336;47.822;7.564;2023-08-20T03:18:27;9.70;;;8.80;;
4646;SDS011;2336;47.822;7.564;2023-08-20T03:20:54;9.63;;;8.83;;
4646;SDS011;2336;47.822;7.564;2023-08-20T03:23:21;9.63;;;8.73;;
4646;SDS011;2336;47.822;7.564;2023-08-20T03:25:47;11.00;;;9.10;;
4646;SDS011;2336;47.822;7.564;2023-08-20T03:28:14;10.00;;;9.20;;
4646;SDS011;2336;47.822;7.564;2023-08-20T03:30:43;8.80;;;8.00;;
4646;SDS011;2336;47.822;7.564;2023-08-20T03:33:09;9.30;;;8.33;;
4646;SDS011;2336;47.822;7.564;2023-08-20T03:35:36;8.60;;;7.90;;
4646;SDS011;2336;47.822;7.564;2023-08-20T03:38:03;9.80;;;9.00;;
4646;SDS011;2336;47.822;7.564;2023-08-20T03:40:30;10.13;;;9.33;;
4646;SDS011;2336;47.822;7.564;2023-08-20T03:42:56;9.67;;;8.80;;
4646;SDS011;2336;47.822;7.564;2023-08-20T03:45:23;9.53;;;8.73;;
4646;SDS011;2336;47.822;7.564;2023-08-20T03:47:51;10.23;;;9.33;;
4646;SDS011;2336;47.822;7.564;2023-08-20T03:50:18;9.53;;;8.83;;
4646;SDS011;2336;47.822;7.564;2023-08-20T03:52:45;10.83;;;9.77;;
4646;SDS011;2336;47.822;7.564;2023-08-20T03:55:11;10.50;;;9.40;;
4646;SDS011;2336;47.822;7.564;2023-08-20T03:57:38;12.00;;;9.40;;
4646;SDS011;2336;47.822;7.564;2023-08-20T04:00:05;10.17;;;9.30;;
4646;SDS011;2336;47.822;7.564;2023-08-20T04:02:34;9.77;;;8.97;;
4646;SDS011;2336;47.822;7.564;2023-08-20T04:05:03;10.07;;;9.13;;
4646;SDS011;2336;47.822;7.564;2023-08-20T04:07:30;9.87;;;8.93;;
4646;SDS011;2336;47.822;7.564;2023-08-20T04:09:57;9.43;;;8.73;;
4646;SDS011;2336;47.822;7.564;2023-08-20T04:12:23;9.50;;;8.80;;
4646;SDS011;2336;47.822;7.564;2023-08-20T04:14:50;9.40;;;8.20;;
4646;SDS011;2336;47.822;7.564;2023-08-20T04:17:17;9.57;;;8.77;;
4646;SDS011;2336;47.822;7.564;2023-08-20T04:19:44;11.40;;;8.60;;
4646;SDS011;2336;47.822;7.564;2023-08-20T04:22:12;9.43;;;8.63;;
4646;SDS011;2336;47.822;7.564;2023-08-20T04:24:39;8.67;;;7.97;;
4646;SDS011;2336;47.822;7.564;2023-08-20T04:27:05;8.93;;;8.23;;
4646;SDS011;2336;47.822;7.564;2023-08-20T04:29:32;10.60;;;8.97;;
4646;SDS011;2336;47.822;7.564;2023-08-20T04:31:59;8.83;;;8.23;;
4646;SDS011;2336;47.822;7.564;2023-08-20T04:34:26;8.60;;;7.87;;
4646;SDS011;2336;47.822;7.564;2023-08-20T04:36:53;7.90;;;7.30;;
4646;SDS011;2336;47.822;7.564;2023-08-20T04:39:21;8.60;;;7.97;;
4646;SDS011;2336;47.822;7.564;2023-08-20T04:41:47;8.70;;;8.10;;
4646;SDS011;2336;47.822;7.564;2023-08-20T04:44:14;8.13;;;7.63;;
4646;SDS011;2336;47.822;7.564;2023-08-20T04:46:41;8.17;;;7.57;;
4646;SDS011;2336;47.822;7.564;2023-08-20T04:49:08;9.13;;;8.40;;
4646;SDS011;2336;47.822;7.564;2023-08-20T04:51:35;8.57;;;7.97;;
4646;SDS011;2336;47.822;7.564;2023-08-20T04:54:02;9.47;;;8.67;;
4646;SDS011;2336;47.822;7.564;2023-08-20T04:56:30;9.87;;;8.00;;
4646;SDS011;2336;47.822;7.564;2023-08-20T04:58:57;9.80;;;8.37;;
4646;SDS011;2336;47.822;7.564;2023-08-20T05:01:23;8.47;;;7.77;;
4646;SDS011;2336;47.822;7.564;2023-08-20T05:03:50;8.20;;;7.47;;
4646;SDS011;2336;47.822;7.564;2023-08-20T05:06:17;8.43;;;7.83;;
4646;SDS011;2336;47.822;7.564;2023-08-20T05:08:43;7.77;;;7.23;;
4646;SDS011;2336;47.822;7.564;2023-08-20T05:11:10;7.73;;;7.23;;
4646;SDS011;2336;47.822;7.564;2023-08-20T05:13:38;8.80;;;8.13;;
4646;SDS011;2336;47.822;7.564;2023-08-20T05:16:05;8.50;;;7.90;;
4646;SDS011;2336;47.822;7.564;2023-08-20T05:18:31;7.90;;;7.27;;
4646;SDS011;2336;47.822;7.564;2023-08-20T05:20:58;8.47;;;7.70;;
4646;SDS011;2336;47.822;7.564;2023-08-20T05:23:25;8.23;;;7.63;;
4646;SDS011;2336;47.822;7.564;2023-08-20T05:25:52;7.73;;;7.03;;
4646;SDS011;2336;47.822;7.564;2023-08-20T05:28:18;8.20;;;7.50;;
4646;SDS011;2336;47.822;7.564;2023-08-20T05:30:53;8.30;;;7.70;;
4646;SDS011;2336;47.822;7.564;2023-08-20T05:33:21;8.30;;;7.60;;
4646;SDS011;2336;47.822;7.564;2023-08-20T05:35:47;7.50;;;7.10;;
4646;SDS011;2336;47.822;7.564;2023-08-20T05:38:14;8.43;;;7.70;;
4646;SDS011;2336;47.822;7.564;2023-08-20T05:40:41;8.13;;;7.53;;
4646;SDS011;2336;47.822;7.564;2023-08-20T05:43:07;9.47;;;8.57;;
4646;SDS011;2336;47.822;7.564;2023-08-20T05:45:34;9.60;;;8.60;;
4646;SDS011;2336;47.822;7.564;2023-08-20T05:48:03;10.27;;;9.10;;
4646;SDS011;2336;47.822;7.564;2023-08-20T05:50:30;9.20;;;8.50;;
4646;SDS011;2336;47.822;7.564;2023-08-20T05:52:56;10.60;;;9.00;;
4646;SDS011;2336;47.822;7.564;2023-08-20T05:55:23;9.10;;;8.40;;
4646;SDS011;2336;47.822;7.564;2023-08-20T05:57:50;9.70;;;9.00;;
4646;SDS011;2336;47.822;7.564;2023-08-20T06:00:17;9.17;;;8.30;;
4646;SDS011;2336;47.822;7.564;2023-08-20T06:02:43;9.50;;;8.70;;
4646;SDS011;2336;47.822;7.564;2023-08-20T06:05:12;9.43;;;8.63;;
4646;SDS011;2336;47.822;7.564;2023-08-20T06:07:38;10.20;;;9.17;;
4646;SDS011;2336;47.822;7.564;2023-08-20T06:10:06;9.80;;;8.70;;
4646;SDS011;2336;47.822;7.564;2023-08-20T06:12:33;8.07;;;7.47;;
4646;SDS011;2336;47.822;7.564;2023-08-20T06:15:00;9.07;;;8.33;;
4646;SDS011;2336;47.822;7.564;2023-08-20T06:17:27;7.70;;;7.10;;
4646;SDS011;2336;47.822;7.564;2023-08-20T06:19:53;8.40;;;7.70;;
4646;SDS011;2336;47.822;7.564;2023-08-20T06:22:21;9.00;;;8.40;;
4646;SDS011;2336;47.822;7.564;2023-08-20T06:24:48;9.73;;;8.90;;
4646;SDS011;2336;47.822;7.564;2023-08-20T06:27:15;8.90;;;8.00;;
4646;SDS011;2336;47.822;7.564;2023-08-20T06:29:42;8.73;;;8.13;;
4646;SDS011;2336;47.822;7.564;2023-08-20T06:32:08;9.10;;;8.30;;
4646;SDS011;2336;47.822;7.564;2023-08-20T06:34:35;8.60;;;7.90;;
4646;SDS011;2336;47.822;7.564;2023-08-20T06:37:02;7.77;;;7.07;;
4646;SDS011;2336;47.822;7.564;2023-08-20T06:39:30;8.30;;;7.57;;
4646;SDS011;2336;47.822;7.564;2023-08-20T06:41:57;8.23;;;7.50;;
4646;SDS011;2336;47.822;7.564;2023-08-20T06:44:24;8.23;;;7.47;;
4646;SDS011;2336;47.822;7.564;2023-08-20T06:46:50;10.43;;;9.60;;
4646;SDS011;2336;47.822;7.564;2023-08-20T06:49:17;10.93;;;9.70;;
4646;SDS011;2336;47.822;7.564;2023-08-20T06:51:44;10.07;;;9.23;;
4646;SDS011;2336;47.822;7.564;2023-08-20T06:54:10;9.07;;;8.37;;
4646;SDS011;2336;47.822;7.564;2023-08-20T06:56:38;10.57;;;9.20;;
4646;SDS011;2336;47.822;7.564;2023-08-20T06:59:05;12.00;;;9.00;;
4646;SDS011;2336;47.822;7.564;2023-08-20T07:01:32;10.17;;;9.40;;
4646;SDS011;2336;47.822;7.564;2023-08-20T07:03:58;10.65;;;9.75;;
4646;SDS011;2336;47.822;7.564;2023-08-20T07:06:25;10.97;;;9.97;;
4646;SDS011;2336;47.822;7.564;2023-08-20T07:08:52;10.10;;;9.20;;
4646;SDS011;2336;47.822;7.564;2023-08-20T07:11:19;10.03;;;9.23;;
4646;SDS011;2336;47.822;7.564;2023-08-20T07:13:47;9.80;;;9.00;;
4646;SDS011;2336;47.822;7.564;2023-08-20T07:16:14;10.13;;;9.13;;
4646;SDS011;2336;47.822;7.564;2023-08-20T07:18:40;11.20;;;10.03;;
4646;SDS011;2336;47.822;7.564;2023-08-20T07:21:07;10.20;;;9.37;;
4646;SDS011;2336;47.822;7.564;2023-08-20T07:23:34;9.60;;;8.80;;
4646;SDS011;2336;47.822;7.564;2023-08-20T07:26:04;10.10;;;8.97;;
4646;SDS011;2336;47.822;7.564;2023-08-20T07:28:32;10.90;;;9.90;;
4646;SDS011;2336;47.822;7.564;2023-08-20T07:31:14;13.03;;;9.83;;
4646;SDS011;2336;47.822;7.564;2023-08-20T07:33:40;11.00;;;10.10;;
4646;SDS011;2336;47.822;7.564;2023-08-20T07:36:07;10.63;;;9.63;;
4646;SDS011;2336;47.822;7.564;2023-08-20T07:38:34;9.83;;;8.93;;
4646;SDS011;2336;47.822;7.564;2023-08-20T07:41:06;10.50;;;9.40;;
4646;SDS011;2336;47.822;7.564;2023-08-20T07:43:33;9.13;;;8.43;;
4646;SDS011;2336;47.822;7.564;2023-08-20T07:45:59;9.00;;;8.20;;
4646;SDS011;2336;47.822;7.564;2023-08-20T07:48:28;9.57;;;8.77;;
4646;SDS011;2336;47.822;7.564;2023-08-20T07:50:54;9.30;;;8.43;;
4646;SDS011;2336;47.822;7.564;2023-08-20T07:53:21;9.20;;;8.50;;
4646;SDS011;2336;47.822;7.564;2023-08-20T07:55:48;8.83;;;8.23;;
4646;SDS011;2336;47.822;7.564;2023-08-20T07:58:15;9.13;;;8.23;;
4646;SDS011;2336;47.822;7.564;2023-08-20T08:00:42;11.60;;;8.93;;
4646;SDS011;2336;47.822;7.564;2023-08-20T08:03:09;9.57;;;8.70;;
4646;SDS011;2336;47.822;7.564;2023-08-20T08:05:37;12.13;;;8.27;;
4646;SDS011;2336;47.822;7.564;2023-08-20T08:08:04;9.23;;;8.60;;
4646;SDS011;2336;47.822;7.564;2023-08-20T08:10:31;10.63;;;9.53;;
4646;SDS011;2336;47.822;7.564;2023-08-20T08:12:57;12.83;;;8.17;;
4646;SDS011;2336;47.822;7.564;2023-08-20T08:15:24;9.47;;;8.73;;
4646;SDS011;2336;47.822;7.564;2023-08-20T08:17:51;9.70;;;8.70;;
4646;SDS011;2336;47.822;7.564;2023-08-20T08:20:17;9.80;;;8.93;;
4646;SDS011;2336;47.822;7.564;2023-08-20T08:22:45;9.40;;;8.60;;
4646;SDS011;2336;47.822;7.564;2023-08-20T08:25:12;11.87;;;8.87;;
4646;SDS011;2336;47.822;7.564;2023-08-20T08:27:39;10.67;;;8.73;;
4646;SDS011;2336;47.822;7.564;2023-08-20T08:30:06;9.00;;;8.20;;
4646;SDS011;2336;47.822;7.564;2023-08-20T08:32:33;8.90;;;8.10;;
4646;SDS011;2336;47.822;7.564;2023-08-20T08:35:00;9.57;;;7.90;;
4646;SDS011;2336;47.822;7.564;2023-08-20T08:37:27;8.00;;;7.47;;
4646;SDS011;2336;47.822;7.564;2023-08-20T08:39:55;9.17;;;8.03;;
4646;SDS011;2336;47.822;7.564;2023-08-20T08:42:22;8.97;;;8.17;;
4646;SDS011;2336;47.822;7.564;2023-08-20T08:44:49;8.60;;;7.87;;
4646;SDS011;2336;47.822;7.564;2023-08-20T08:47:16;8.37;;;7.83;;
4646;SDS011;2336;47.822;7.564;2023-08-20T08:49:44;8.10;;;7.50;;
4646;SDS011;2336;47.822;7.564;2023-08-20T08:52:11;8.53;;;7.83;;
4646;SDS011;2336;47.822;7.564;2023-08-20T08:54:38;9.70;;;8.87;;
4646;SDS011;2336;47.822;7.564;2023-08-20T08:57:07;10.13;;;8.87;;
4646;SDS011;2336;47.822;7.564;2023-08-20T08:59:34;9.77;;;8.90;;
4646;SDS011;2336;47.822;7.564;2023-08-20T09:02:00;9.90;;;8.47;;
4646;SDS011;2336;47.822;7.564;2023-08-20T09:04:27;10.40;;;8.17;;
4646;SDS011;2336;47.822;7.564;2023-08-20T09:06:55;8.90;;;8.00;;
4646;SDS011;2336;47.822;7.564;2023-08-20T09:09:22;9.63;;;8.70;;
4646;SDS011;2336;47.822;7.564;2023-08-20T09:11:49;10.67;;;9.57;;
4646;SDS011;2336;47.822;7.564;2023-08-20T09:14:23;9.43;;;8.63;;
4646;SDS011;2336;47.822;7.564;2023-08-20T09:16:54;8.37;;;7.77;;
4646;SDS011;2336;47.822;7.564;2023-08-20T09:19:22;9.60;;;8.70;;
4646;SDS011;2336;47.822;7.564;2023-08-20T09:21:48;10.87;;;8.80;;
4646;SDS011;2336;47.822;7.564;2023-08-20T09:24:20;10.60;;;8.60;;
4646;SDS011;2336;47.822;7.564;2023-08-20T09:26:55;9.30;;;8.60;;
4646;SDS011;2336;47.822;7.564;2023-08-20T09:29:24;11.60;;;8.40;;
4646;SDS011;2336;47.822;7.564;2023-08-20T09:31:51;13.27;;;8.70;;
4646;SDS011;2336;47.822;7.564;2023-08-20T09:34:35;11.13;;;8.67;;
4646;SDS011;2336;47.822;7.564;2023-08-20T09:37:02;8.50;;;7.90;;
4646;SDS011;2336;47.822;7.564;2023-08-20T09:39:29;9.17;;;8.47;;
4646;SDS011;2336;47.822;7.564;2023-08-20T09:41:56;8.83;;;8.13;;
4646;SDS011;2336;47.822;7.564;2023-08-20T09:44:26;9.13;;;8.30;;
4646;SDS011;2336;47.822;7.564;2023-08-20T09:47:02;9.17;;;8.57;;
4646;SDS011;2336;47.822;7.564;2023-08-20T09:49:32;9.57;;;8.83;;
4646;SDS011;2336;47.822;7.564;2023-08-20T09:52:02;8.50;;;7.90;;
4646;SDS011;2336;47.822;7.564;2023-08-20T09:54:33;8.60;;;8.00;;
4646;SDS011;2336;47.822;7.564;2023-08-20T09:57:06;9.00;;;8.10;;
4646;SDS011;2336;47.822;7.564;2023-08-20T09:59:37;8.50;;;7.90;;
4646;SDS011;2336;47.822;7.564;2023-08-20T10:02:07;8.47;;;7.77;;
4646;SDS011;2336;47.822;7.564;2023-08-20T10:04:38;8.70;;;8.10;;
4646;SDS011;2336;47.822;7.564;2023-08-20T10:07:05;8.37;;;7.77;;
4646;SDS011;2336;47.822;7.564;2023-08-20T10:09:32;8.37;;;7.57;;
4646;SDS011;2336;47.822;7.564;2023-08-20T10:12:00;7.83;;;7.33;;
4646;SDS011;2336;47.822;7.564;2023-08-20T10:14:27;7.50;;;6.70;;
4646;SDS011;2336;47.822;7.564;2023-08-20T10:16:55;8.30;;;7.33;;
4646;SDS011;2336;47.822;7.564;2023-08-20T10:19:23;8.50;;;7.73;;
4646;SDS011;2336;47.822;7.564;2023-08-20T10:21:52;8.27;;;7.50;;
4646;SDS011;2336;47.822;7.564;2023-08-20T10:24:19;7.60;;;6.00;;
4646;SDS011;2336;47.822;7.564;2023-08-20T10:26:46;7.27;;;6.67;;
4646;SDS011;2336;47.822;7.564;2023-08-20T10:32:04;7.10;;;6.40;;
4646;SDS011;2336;47.822;7.564;2023-08-20T10:34:32;7.20;;;6.70;;
4646;SDS011;2336;47.822;7.564;2023-08-20T10:37:01;9.37;;;8.00;;
4646;SDS011;2336;47.822;7.564;2023-08-20T10:39:28;9.17;;;8.37;;
4646;SDS011;2336;47.822;7.564;2023-08-20T10:42:07;8.07;;;7.23;;
4646;SDS011;2336;47.822;7.564;2023-08-20T10:47:26;9.57;;;8.50;;
4646;SDS011;2336;47.822;7.564;2023-08-20T10:50:08;8.70;;;7.90;;
4646;SDS011;2336;47.822;7.564;2023-08-20T10:52:38;12.30;;;8.23;;
4646;SDS011;2336;47.822;7.564;2023-08-20T10:55:06;8.50;;;7.80;;
4646;SDS011;2336;47.822;7.564;2023-08-20T10:57:34;8.97;;;7.77;;
4646;SDS011;2336;47.822;7.564;2023-08-20T11:00:02;9.77;;;8.97;;
4646;SDS011;2336;47.822;7.564;2023-08-20T11:02:37;9.90;;;8.43;;
4646;SDS011;2336;47.822;7.564;2023-08-20T11:05:09;9.50;;;7.60;;
4646;SDS011;2336;47.822;7.564;2023-08-20T11:07:42;8.10;;;7.60;;
4646;SDS011;2336;47.822;7.564;2023-08-20T11:10:11;8.40;;;7.60;;
4646;SDS011;2336;47.822;7.564;2023-08-20T11:12:39;10.97;;;7.70;;
4646;SDS011;2336;47.822;7.564;2023-08-20T11:15:07;8.47;;;7.60;;
4646;SDS011;2336;47.822;7.564;2023-08-20T11:17:41;8.80;;;7.90;;
4646;SDS011;2336;47.822;7.564;2023-08-20T11:20:09;8.60;;;7.80;;
4646;SDS011;2336;47.822;7.564;2023-08-20T11:22:38;8.00;;;7.50;;
4646;SDS011;2336;47.822;7.564;2023-08-20T11:25:05;9.20;;;8.40;;
4646;SDS011;2336;47.822;7.564;2023-08-20T11:27:36;7.67;;;7.03;;
4646;SDS011;2336;47.822;7.564;2023-08-20T11:30:07;8.27;;;7.57;;
4646;SDS011;2336;47.822;7.564;2023-08-20T11:32:34;7.93;;;7.30;;
4646;SDS011;2336;47.822;7.564;2023-08-20T11:35:03;8.30;;;7.70;;
4646;SDS011;2336;47.822;7.564;2023-08-20T11:37:31;7.70;;;7.20;;
4646;SDS011;2336;47.822;7.564;2023-08-20T11:39:58;7.53;;;7.00;;
4646;SDS011;2336;47.822;7.564;2023-08-20T11:42:25;8.10;;;6.90;;
4646;SDS011;2336;47.822;7.564;2023-08-20T11:44:54;7.70;;;7.10;;
4646;SDS011;2336;47.822;7.564;2023-08-20T11:47:21;7.70;;;6.90;;
4646;SDS011;2336;47.822;7.564;2023-08-20T11:49:56;7.53;;;6.87;;
4646;SDS011;2336;47.822;7.564;2023-08-20T11:52:30;7.37;;;6.87;;
4646;SDS011;2336;47.822;7.564;2023-08-20T11:54:58;7.97;;;5.90;;
4646;SDS011;2336;47.822;7.564;2023-08-20T11:57:25;7.30;;;6.20;;
4646;SDS011;2336;47.822;7.564;2023-08-20T11:59:52;6.80;;;6.40;;
4646;SDS011;2336;47.822;7.564;2023-08-20T12:02:24;7.13;;;6.67;;
4646;SDS011;2336;47.822;7.564;2023-08-20T12:04:51;7.50;;;6.70;;
4646;SDS011;2336;47.822;7.564;2023-08-20T12:07:24;7.50;;;6.70;;
4646;SDS011;2336;47.822;7.564;2023-08-20T12:09:51;9.33;;;6.47;;
4646;SDS011;2336;47.822;7.564;2023-08-20T12:12:19;9.30;;;7.10;;
4646;SDS011;2336;47.822;7.564;2023-08-20T12:14:46;8.00;;;6.50;;
4646;SDS011;2336;47.822;7.564;2023-08-20T12:17:16;10.30;;;6.40;;
4646;SDS011;2336;47.822;7.564;2023-08-20T12:19:43;6.27;;;5.80;;
4646;SDS011;2336;47.822;7.564;2023-08-20T12:22:10;7.40;;;6.63;;
4646;SDS011;2336;47.822;7.564;2023-08-20T12:24:38;6.30;;;5.87;;
4646;SDS011;2336;47.822;7.564;2023-08-20T12:27:05;6.87;;;6.33;;
4646;SDS011;2336;47.822;7.564;2023-08-20T12:29:32;7.10;;;6.40;;
4646;SDS011;2336;47.822;7.564;2023-08-20T12:31:59;7.13;;;6.33;;
4646;SDS011;2336;47.822;7.564;2023-08-20T12:34:29;6.63;;;5.77;;
4646;SDS011;2336;47.822;7.564;2023-08-20T12:36:56;6.80;;;6.03;;
4646;SDS011;2336;47.822;7.564;2023-08-20T12:39:22;6.10;;;5.53;;
4646;SDS011;2336;47.822;7.564;2023-08-20T12:41:50;6.07;;;5.47;;
4646;SDS011;2336;47.822;7.564;2023-08-20T12:44:17;9.13;;;6.13;;
4646;SDS011;2336;47.822;7.564;2023-08-20T12:46:44;6.50;;;5.70;;
4646;SDS011;2336;47.822;7.564;2023-08-20T12:49:10;6.50;;;5.80;;
4646;SDS011;2336;47.822;7.564;2023-08-20T12:51:37;5.93;;;5.43;;
4646;SDS011;2336;47.822;7.564;2023-08-20T12:54:04;5.87;;;5.50;;
4646;SDS011;2336;47.822;7.564;2023-08-20T12:56:31;6.60;;;5.93;;
4646;SDS011;2336;47.822;7.564;2023-08-20T12:58:59;6.43;;;5.87;;
4646;SDS011;2336;47.822;7.564;2023-08-20T13:01:26;7.43;;;6.70;;
4646;SDS011;2336;47.822;7.564;2023-08-20T13:03:53;7.13;;;5.40;;
4646;SDS011;2336;47.822;7.564;2023-08-20T13:06:20;5.63;;;5.30;;
4646;SDS011;2336;47.822;7.564;2023-08-20T13:08:47;9.40;;;5.73;;
4646;SDS011;2336;47.822;7.564;2023-08-20T13:11:16;5.23;;;4.87;;
4646;SDS011;2336;47.822;7.564;2023-08-20T13:13:44;6.70;;;5.27;;
4646;SDS011;2336;47.822;7.564;2023-08-20T13:16:13;5.50;;;5.10;;
4646;SDS011;2336;47.822;7.564;2023-08-20T13:18:40;6.33;;;5.23;;
4646;SDS011;2336;47.822;7.564;2023-08-20T13:21:07;5.70;;;5.20;;
4646;SDS011;2336;47.822;7.564;2023-08-20T13:23:34;8.60;;;5.20;;
4646;SDS011;2336;47.822;7.564;2023-08-20T13:26:00;5.37;;;4.97;;
4646;SDS011;2336;47.822;7.564;2023-08-20T13:28:27;4.80;;;4.50;;
4646;SDS011;2336;47.822;7.564;2023-08-20T13:30:54;10.20;;;5.10;;
4646;SDS011;2336;47.822;7.564;2023-08-20T13:33:22;9.73;;;5.80;;
4646;SDS011;2336;47.822;7.564;2023-08-20T13:35:49;5.80;;;5.40;;
4646;SDS011;2336;47.822;7.564;2023-08-20T13:38:17;5.73;;;5.33;;
4646;SDS011;2336;47.822;7.564;2023-08-20T13:40:45;11.20;;;5.47;;
4646;SDS011;2336;47.822;7.564;2023-08-20T13:43:12;6.13;;;5.27;;
4646;SDS011;2336;47.822;7.564;2023-08-20T13:45:38;6.13;;;5.60;;
4646;SDS011;2336;47.822;7.564;2023-08-20T13:48:05;5.40;;;4.90;;
4646;SDS011;2336;47.822;7.564;2023-08-20T13:50:34;5.93;;;5.23;;
4646;SDS011;2336;47.822;7.564;2023-08-20T13:53:00;5.70;;;5.30;;
4646;SDS011;2336;47.822;7.564;2023-08-20T13:55:27;5.70;;;5.20;;
4646;SDS011;2336;47.822;7.564;2023-08-20T13:57:56;7.63;;;5.60;;
4646;SDS011;2336;47.822;7.564;2023-08-20T14:00:22;5.53;;;5.13;;
4646;SDS011;2336;47.822;7.564;2023-08-20T14:02:49;5.70;;;5.40;;
4646;SDS011;2336;47.822;7.564;2023-08-20T14:05:16;5.53;;;5.03;;
4646;SDS011;2336;47.822;7.564;2023-08-20T14:07:45;4.90;;;4.60;;
4646;SDS011;2336;47.822;7.564;2023-08-20T14:10:12;6.10;;;5.53;;
4646;SDS011;2336;47.822;7.564;2023-08-20T14:12:39;8.03;;;5.70;;
4646;SDS011;2336;47.822;7.564;2023-08-20T14:15:06;5.70;;;5.17;;
4646;SDS011;2336;47.822;7.564;2023-08-20T14:17:34;5.90;;;5.40;;
4646;SDS011;2336;47.822;7.564;2023-08-20T14:20:00;8.83;;;5.40;;
4646;SDS011;2336;47.822;7.564;2023-08-20T14:22:28;5.53;;;5.20;;
4646;SDS011;2336;47.822;7.564;2023-08-20T14:24:56;6.17;;;5.60;;
4646;SDS011;2336;47.822;7.564;2023-08-20T14:27:23;5.40;;;4.90;;
4646;SDS011;2336;47.822;7.564;2023-08-20T14:29:50;9.70;;;5.77;;
4646;SDS011;2336;47.822;7.564;2023-08-20T14:32:17;5.53;;;5.10;;
4646;SDS011;2336;47.822;7.564;2023-08-20T14:34:43;7.20;;;5.43;;
4646;SDS011;2336;47.822;7.564;2023-08-20T14:37:10;5.27;;;4.80;;
4646;SDS011;2336;47.822;7.564;2023-08-20T14:39:38;5.47;;;5.07;;
4646;SDS011;2336;47.822;7.564;2023-08-20T14:42:06;5.80;;;5.30;;
4646;SDS011;2336;47.822;7.564;2023-08-20T14:44:33;6.00;;;4.83;;
4646;SDS011;2336;47.822;7.564;2023-08-20T14:47:00;5.03;;;4.73;;
4646;SDS011;2336;47.822;7.564;2023-08-20T14:49:26;5.33;;;4.87;;
4646;SDS011;2336;47.822;7.564;2023-08-20T14:51:54;7.20;;;5.10;;
4646;SDS011;2336;47.822;7.564;2023-08-20T14:54:21;8.60;;;4.77;;
4646;SDS011;2336;47.822;7.564;2023-08-20T14:56:47;5.50;;;5.20;;
4646;SDS011;2336;47.822;7.564;2023-08-20T14:59:15;5.10;;;4.67;;
4646;SDS011;2336;47.822;7.564;2023-08-20T15:01:42;5.67;;;5.17;;
4646;SDS011;2336;47.822;7.564;2023-08-20T15:04:09;7.50;;;5.07;;
4646;SDS011;2336;47.822;7.564;2023-08-20T15:06:36;5.60;;;5.10;;
4646;SDS011;2336;47.822;7.564;2023-08-20T15:09:02;5.30;;;4.80;;
4646;SDS011;2336;47.822;7.564;2023-08-20T15:11:30;5.40;;;5.00;;
4646;SDS011;2336;47.822;7.564;2023-08-20T15:13:57;5.40;;;4.40;;
4646;SDS011;2336;47.822;7.564;2023-08-20T15:16:25;4.87;;;4.43;;
4646;SDS011;2336;47.822;7.564;2023-08-20T15:18:52;5.33;;;4.80;;
4646;SDS011;2336;47.822;7.564;2023-08-20T15:21:18;5.17;;;4.77;;